createdAt,value
2022-08-20T05:37:15.295Z,98511.53
2022-08-20T05:39:42.495Z,98507.06
2022-08-20T05:42:09.054Z,98500.06
2022-08-20T05:44:38.187Z,98510.22
2022-08-20T05:47:07.127Z,98497.63
2022-08-20T05:49:35.120Z,98501.47
2022-08-20T05:52:01.817Z,98508.44
2022-08-20T05:54:28.423Z,98508.84
2022-08-20T05:56:55.376Z,98516.59
2022-08-20T05:59:24.344Z,98512.88
2022-08-20T06:01:53.201Z,98517.69
2022-08-20T06:04:26.827Z,98524.50
2022-08-20T06:07:13.103Z,98525.34
2022-08-20T06:09:44.395Z,98533.91
2022-08-20T06:12:14.975Z,98524.13
2022-08-20T06:14:41.742Z,98529.69
2022-08-20T06:17:15.299Z,98532.50
2022-08-20T06:19:46.851Z,98537.03
2022-08-20T06:22:19.480Z,98526.53
2022-08-20T06:24:49.730Z,98536.84
2022-08-20T06:27:19.655Z,98554.38
2022-08-20T06:29:47.492Z,98547.81
2022-08-20T06:32:16.870Z,98548.41
2022-08-20T06:34:50.256Z,98553.34
2022-08-20T06:37:23.526Z,98562.78
2022-08-20T06:40:03.310Z,98554.75
2022-08-20T06:42:29.944Z,98557.03
2022-08-20T06:44:56.503Z,98550.94
2022-08-20T06:47:23.691Z,98555.34
2022-08-20T06:49:50.685Z,98555.47
2022-08-20T06:52:19.971Z,98568.84
2022-08-20T06:54:56.554Z,98575.09
2022-08-20T06:57:23.137Z,98572.00
2022-08-20T06:59:54.184Z,98563.97
2022-08-20T07:02:26.584Z,98587.88
2022-08-20T07:04:57.032Z,98580.38
2022-08-20T07:07:23.924Z,98587.53
2022-08-20T07:10:01.799Z,98586.31
2022-08-20T07:12:28.402Z,98584.13
2022-08-20T07:14:57.318Z,98576.75
2022-08-20T07:17:29.660Z,98596.09
2022-08-20T07:19:56.248Z,98624.78
2022-08-20T07:22:25.367Z,98621.22
2022-08-20T07:24:52.351Z,98661.72
2022-08-20T07:27:24.978Z,98656.53
2022-08-20T07:30:15.078Z,98687.28
2022-08-20T07:32:45.244Z,98758.63
2022-08-20T07:35:22.282Z,98797.16
2022-08-20T07:37:51.978Z,98814.03
2022-08-20T07:40:27.509Z,98819.31
2022-08-20T07:43:00.819Z,98780.25
2022-08-20T07:45:31.207Z,98738.94
2022-08-20T07:48:11.780Z,98700.44
2022-08-20T07:50:39.271Z,98700.50
2022-08-20T07:53:08.064Z,98712.19
2022-08-20T07:55:34.963Z,98688.69
2022-08-20T07:58:13.950Z,98677.47
2022-08-20T08:00:40.890Z,98651.09
2022-08-20T08:03:07.866Z,98632.91
2022-08-20T08:05:38.177Z,98614.34
2022-08-20T08:08:11.386Z,98605.78
2022-08-20T08:10:42.399Z,98615.00
2022-08-20T08:13:27.562Z,98612.09
2022-08-20T08:16:01.570Z,98599.16
2022-08-20T08:18:32.050Z,98605.41
2022-08-20T08:20:59.794Z,98628.94
2022-08-20T08:23:31.591Z,98616.38
2022-08-20T08:26:01.347Z,98607.59
2022-08-20T08:28:30.507Z,98615.09
2022-08-20T08:30:57.421Z,98615.19
2022-08-20T08:33:27.625Z,98618.50
2022-08-20T08:36:04.418Z,98621.63
2022-08-20T08:38:34.310Z,98625.38
2022-08-20T08:41:14.044Z,98630.28
2022-08-20T08:43:41.031Z,98628.53
2022-08-20T08:46:10.963Z,98623.97
2022-08-20T08:48:45.428Z,98640.06
2022-08-20T08:51:16.243Z,98646.91
2022-08-20T08:53:54.733Z,98647.38
2022-08-20T08:56:26.843Z,98658.47
2022-08-20T08:58:55.595Z,98650.34
2022-08-20T09:01:53.750Z,98657.22
2022-08-20T09:04:16.910Z,98695.72
2022-08-20T09:06:53.488Z,98757.16
2022-08-20T09:09:28.748Z,98793.63
2022-08-20T09:12:04.282Z,98820.22
2022-08-20T09:14:33.668Z,98837.25
2022-08-20T09:17:00.244Z,98833.91
2022-08-20T09:19:26.786Z,98834.22
2022-08-20T09:21:53.398Z,98837.91
2022-08-20T09:24:19.948Z,98801.66
2022-08-20T09:26:46.551Z,98804.56
2022-08-20T09:29:13.487Z,98821.34
2022-08-20T09:31:41.558Z,98855.56
2022-08-20T09:34:10.961Z,98860.91
2022-08-20T09:36:37.522Z,98857.47
2022-08-20T09:39:04.204Z,98854.22
2022-08-20T09:41:34.663Z,98852.44
2022-08-20T09:44:02.188Z,98829.06
2022-08-20T09:46:28.806Z,98778.91
2022-08-20T09:48:57.966Z,98565.88
2022-08-20T09:51:24.598Z,98587.56
2022-08-20T09:53:51.258Z,98525.34
2022-08-20T09:56:18.294Z,98804.16
2022-08-20T09:58:51.341Z,98772.31
2022-08-20T10:01:20.331Z,98888.66
2022-08-20T10:03:50.218Z,98898.78
2022-08-20T10:06:20.721Z,98857.19
2022-08-20T10:08:50.498Z,98858.09
2022-08-20T10:11:19.527Z,98851.22
2022-08-20T10:13:49.604Z,98844.03
2022-08-20T10:16:18.427Z,98843.94
2022-08-20T10:18:49.241Z,98852.69
2022-08-20T10:21:20.752Z,98857.69
2022-08-20T10:23:47.333Z,98853.91
2022-08-20T10:26:15.017Z,98862.16
2022-08-20T10:28:43.996Z,98847.94
2022-08-20T10:31:12.086Z,98868.97
2022-08-20T10:33:39.639Z,98856.78
2022-08-20T10:36:20.050Z,98840.66
2022-08-20T10:38:48.428Z,98811.31
2022-08-20T10:41:14.953Z,98733.88
2022-08-20T10:43:41.583Z,98698.38
2022-08-20T10:46:09.082Z,98637.19
2022-08-20T10:48:35.884Z,98669.66
2022-08-20T10:51:05.057Z,98741.22
2022-08-20T10:53:34.688Z,98733.59
2022-08-20T10:56:03.758Z,98721.84
2022-08-20T10:58:39.357Z,98704.16
2022-08-20T11:01:09.444Z,98687.09
2022-08-20T11:03:38.521Z,98713.09
2022-08-20T11:06:05.335Z,98722.69
2022-08-20T11:08:34.498Z,98722.66
2022-08-20T11:11:04.481Z,98661.31
2022-08-20T11:13:32.759Z,98497.13
2022-08-20T11:16:02.758Z,98548.53
2022-08-20T11:18:32.917Z,98444.75
2022-08-20T11:21:02.098Z,98375.50
2022-08-20T11:23:28.705Z,98361.91
2022-08-20T11:26:01.678Z,98360.50
2022-08-20T11:28:32.284Z,98183.25
2022-08-20T11:31:00.291Z,98241.91
2022-08-20T11:33:29.173Z,98311.34
2022-08-20T11:35:55.886Z,98249.25
2022-08-20T11:38:25.100Z,98224.16
2022-08-20T11:40:54.052Z,98090.34
2022-08-20T11:43:23.122Z,98141.34
2022-08-20T11:45:56.079Z,98223.91
2022-08-20T11:48:23.369Z,98128.19
2022-08-20T11:50:52.827Z,98057.53
2022-08-20T11:53:19.530Z,98175.28
2022-08-20T11:55:48.696Z,98304.63
2022-08-20T11:58:15.484Z,98353.06
2022-08-20T12:00:44.170Z,98460.72
2022-08-20T12:03:12.141Z,98435.72
2022-08-20T12:05:45.005Z,98497.75
2022-08-20T12:08:25.139Z,98517.34
2022-08-20T12:10:57.485Z,98402.25
2022-08-20T12:13:30.795Z,98359.88
2022-08-20T12:16:17.658Z,98534.06
2022-08-20T12:18:47.490Z,98605.00
2022-08-20T12:21:17.645Z,98588.56
2022-08-20T12:23:49.095Z,98515.06
2022-08-20T12:26:22.550Z,98475.69
2022-08-20T12:28:51.415Z,98387.19
2022-08-20T12:31:17.991Z,98420.44
2022-08-20T12:33:46.914Z,98458.06
2022-08-20T12:36:16.022Z,98509.44
2022-08-20T12:38:44.872Z,98548.25
2022-08-20T12:41:13.756Z,98600.13
2022-08-20T12:43:42.973Z,98662.69
2022-08-20T12:46:09.524Z,98699.59
2022-08-20T12:48:38.583Z,98692.34
2022-08-20T12:51:05.154Z,98615.69
2022-08-20T12:53:36.393Z,98609.69
2022-08-20T12:56:05.365Z,98626.59
2022-08-20T12:58:34.603Z,98676.72
2022-08-20T13:01:06.074Z,98675.84
2022-08-20T13:03:34.625Z,98669.91
2022-08-20T13:06:16.188Z,98719.66
2022-08-20T13:08:47.568Z,98799.50
2022-08-20T13:11:16.396Z,98837.09
2022-08-20T13:13:47.540Z,98838.56
2022-08-20T13:16:19.036Z,98839.91
2022-08-20T13:18:48.081Z,98826.19
2022-08-20T13:21:23.793Z,98796.59
2022-08-20T13:23:53.377Z,98751.22
2022-08-20T13:26:22.116Z,98699.41
2022-08-20T13:28:48.693Z,98625.00
2022-08-20T13:31:15.234Z,98565.28
2022-08-20T13:33:46.790Z,98513.97
2022-08-20T13:36:13.459Z,98388.16
2022-08-20T13:38:42.243Z,98319.09
2022-08-20T13:41:08.859Z,98328.34
2022-08-20T13:43:40.353Z,98265.19
2022-08-20T13:46:09.078Z,98300.28
2022-08-20T13:48:40.681Z,98219.38
2022-08-20T13:51:09.765Z,98257.38
2022-08-20T13:53:36.532Z,98237.50
2022-08-20T13:56:04.010Z,98225.81
2022-08-20T13:58:30.566Z,98207.97
2022-08-20T14:01:00.758Z,98183.94
2022-08-20T14:03:27.336Z,98137.63
2022-08-20T14:05:56.950Z,98173.22
2022-08-20T14:08:26.042Z,98162.75
2022-08-20T14:10:55.080Z,98205.13
2022-08-20T14:13:26.596Z,98183.50
2022-08-20T14:15:54.232Z,98156.00
2022-08-20T14:18:20.857Z,98195.84
2022-08-20T14:20:50.192Z,98174.19
2022-08-20T14:23:16.953Z,98293.25
2022-08-20T14:25:50.019Z,98347.91
2022-08-20T14:28:24.658Z,98394.50
2022-08-20T14:30:53.949Z,98441.09
2022-08-20T14:33:26.469Z,98462.56
2022-08-20T14:35:55.663Z,98471.09
2022-08-20T14:38:22.295Z,98495.72
2022-08-20T14:40:50.232Z,98524.81
2022-08-20T14:43:16.984Z,98514.06
2022-08-20T14:45:43.511Z,98511.88
2022-08-20T14:48:10.212Z,98546.13
2022-08-20T14:50:37.490Z,98521.22
2022-08-20T14:53:06.809Z,98547.69
2022-08-20T14:55:37.294Z,98494.66
2022-08-20T14:58:11.132Z,98393.81
2022-08-20T15:00:41.043Z,98380.88
2022-08-20T15:03:10.196Z,98324.94
2022-08-20T15:05:39.661Z,98318.66
2022-08-20T15:08:10.506Z,98387.16
2022-08-20T15:10:41.330Z,98400.44
2022-08-20T15:13:08.790Z,98320.19
2022-08-20T15:15:35.399Z,98334.19
2022-08-20T15:18:04.322Z,98344.91
2022-08-20T15:20:34.917Z,98350.56
2022-08-20T15:23:01.898Z,98372.81
2022-08-20T15:25:36.631Z,98388.09
2022-08-20T15:28:09.108Z,98351.00
2022-08-20T15:30:40.454Z,98405.94
2022-08-20T15:33:10.298Z,98379.66
2022-08-20T15:35:37.008Z,98460.56
2022-08-20T15:38:03.774Z,98542.03
2022-08-20T15:40:32.338Z,98540.34
2022-08-20T15:43:02.907Z,98540.53
2022-08-20T15:45:29.455Z,98621.38
2022-08-20T15:48:20.744Z,98676.50
2022-08-20T15:50:47.215Z,98719.56
2022-08-20T15:53:33.851Z,98723.72
2022-08-20T15:56:16.365Z,98713.28
2022-08-20T15:58:44.908Z,98751.94
2022-08-20T16:01:43.842Z,98764.06
2022-08-20T16:04:27.243Z,98760.09
2022-08-20T16:07:02.643Z,98735.47
2022-08-20T16:09:47.689Z,98678.66
2022-08-20T16:12:32.508Z,98635.41
2022-08-20T16:15:05.153Z,98588.81
2022-08-20T16:17:45.914Z,98553.72
2022-08-20T16:20:35.401Z,98567.72
2022-08-20T16:23:04.899Z,98487.47
2022-08-20T16:25:49.305Z,98425.16
2022-08-20T16:28:23.891Z,98355.00
2022-08-20T16:30:58.210Z,98347.69
2022-08-20T16:33:50.517Z,98235.06
2022-08-20T16:37:16.249Z,98152.22
2022-08-20T16:39:54.671Z,98309.22
2022-08-20T16:42:25.790Z,98226.28
2022-08-20T16:44:54.831Z,98214.94
2022-08-20T16:47:28.269Z,98264.75
2022-08-20T16:50:06.794Z,98234.34
2022-08-20T16:52:33.450Z,98274.56
2022-08-20T16:55:00.039Z,98287.88
2022-08-20T16:57:28.347Z,98310.81
2022-08-20T17:00:15.771Z,98334.53
2022-08-20T17:02:56.832Z,98283.63
2022-08-20T17:05:27.623Z,98300.63
2022-08-20T17:08:07.413Z,98410.72
2022-08-20T17:10:40.464Z,98400.81
2022-08-20T17:13:15.521Z,98373.81
2022-08-20T17:15:55.166Z,98437.03
2022-08-20T17:18:28.524Z,98430.97
2022-08-20T17:21:01.729Z,98520.16
2022-08-20T17:23:28.585Z,98553.19
2022-08-20T17:25:59.129Z,98635.47
2022-08-20T17:28:26.654Z,98860.97
2022-08-20T17:30:56.279Z,98837.28
2022-08-20T17:33:41.241Z,98800.22
2022-08-20T17:36:24.082Z,98809.63
2022-08-20T17:38:54.966Z,98807.47
2022-08-20T17:41:28.121Z,98807.91
2022-08-20T17:44:19.919Z,98794.28
2022-08-20T17:46:49.622Z,98788.31
2022-08-20T17:49:33.181Z,98793.34
2022-08-20T17:52:04.041Z,98799.25
2022-08-20T17:54:36.962Z,98829.56
2022-08-20T17:57:09.953Z,98817.44
2022-08-20T18:00:01.247Z,98810.91
2022-08-20T18:02:32.292Z,98815.59
2022-08-20T18:04:58.838Z,98812.84
2022-08-20T18:07:35.882Z,98815.59
2022-08-20T18:10:09.966Z,98820.63
2022-08-20T18:12:39.516Z,98820.59
2022-08-20T18:15:20.155Z,98811.38
2022-08-20T18:18:03.493Z,98806.94
2022-08-20T18:20:37.761Z,98805.25
2022-08-20T18:23:12.327Z,98796.09
2022-08-20T18:25:45.839Z,98796.09
2022-08-20T18:28:18.346Z,98792.38
2022-08-20T18:30:52.619Z,98789.47
2022-08-20T18:33:33.584Z,98801.19
2022-08-20T18:36:07.419Z,98788.03
2022-08-20T18:38:37.335Z,98789.66
2022-08-20T18:41:16.074Z,98796.50
2022-08-20T18:43:50.044Z,98774.66
2022-08-20T18:46:23.705Z,98766.00
2022-08-20T18:49:01.983Z,98764.75
2022-08-20T18:51:40.756Z,98750.75
2022-08-20T18:54:07.733Z,98751.13
2022-08-20T18:56:43.093Z,98749.41
2022-08-20T18:59:15.092Z,98755.97
2022-08-20T19:01:43.095Z,98737.66
2022-08-20T19:04:26.700Z,98757.31
2022-08-20T19:07:02.450Z,98741.41
2022-08-20T19:09:50.789Z,98735.09
2022-08-20T19:12:40.169Z,98745.28
2022-08-20T19:15:18.730Z,98756.16
2022-08-20T19:17:51.761Z,98758.44
2022-08-20T19:20:26.593Z,98753.94
2022-08-20T19:22:59.662Z,98753.69
2022-08-20T19:25:31.325Z,98757.97
2022-08-20T19:28:06.157Z,98761.69
2022-08-20T19:30:38.785Z,98745.84
2022-08-20T19:33:10.615Z,98752.84
2022-08-20T19:35:41.561Z,98728.66
2022-08-20T19:38:18.624Z,98714.75
2022-08-20T19:40:46.073Z,98722.03
2022-08-20T19:43:17.323Z,98723.13
2022-08-20T19:45:56.684Z,98729.91
2022-08-20T19:48:49.321Z,98723.47
2022-08-20T19:51:53.437Z,98732.75
2022-08-20T19:54:24.888Z,98729.88
2022-08-20T19:56:57.466Z,98715.50
2022-08-20T19:59:26.564Z,98706.19
2022-08-20T20:02:01.586Z,98709.72
2022-08-20T20:04:41.218Z,98712.44
2022-08-20T20:07:29.057Z,98701.53
2022-08-20T20:10:00.255Z,98700.59
2022-08-20T20:12:33.360Z,98700.69
2022-08-20T20:15:00.590Z,98704.88
2022-08-20T20:17:31.562Z,98697.78
2022-08-20T20:20:26.175Z,98699.19
2022-08-20T20:22:55.422Z,98689.91
2022-08-20T20:25:37.066Z,98689.25
2022-08-20T20:28:21.744Z,98689.34
2022-08-20T20:30:48.998Z,98676.69
2022-08-20T20:33:24.387Z,98686.56
2022-08-20T20:36:06.874Z,98694.06
2022-08-20T20:38:37.935Z,98683.75
2022-08-20T20:41:09.272Z,98683.00
2022-08-20T20:43:42.069Z,98688.47
2022-08-20T20:46:23.668Z,98684.84
2022-08-20T20:48:52.815Z,98676.41
2022-08-20T20:51:28.941Z,98673.41
2022-08-20T20:54:01.790Z,98676.47
2022-08-20T20:56:30.530Z,98675.34
2022-08-20T20:58:57.088Z,98671.78
2022-08-20T21:01:47.932Z,98668.16
2022-08-20T21:04:32.504Z,98671.53
2022-08-20T21:07:22.103Z,98669.84
2022-08-20T21:10:09.127Z,98676.66
2022-08-20T21:12:59.403Z,98675.41
2022-08-20T21:15:46.486Z,98671.53
2022-08-20T21:18:36.880Z,98673.00
2022-08-20T21:21:28.400Z,98665.09
2022-08-20T21:24:15.374Z,98664.28
2022-08-20T21:27:03.894Z,98665.81
2022-08-20T21:29:51.189Z,98672.91
2022-08-20T21:32:40.350Z,98676.06
2022-08-20T21:35:27.670Z,98663.63
2022-08-20T21:38:15.281Z,98669.03
2022-08-20T21:41:04.306Z,98666.94
2022-08-20T21:43:55.126Z,98664.16
2022-08-20T21:46:45.368Z,98662.97
2022-08-20T21:49:34.772Z,98662.97
2022-08-20T21:52:24.178Z,98667.53
2022-08-20T21:55:14.565Z,98667.56
2022-08-20T21:58:04.376Z,98670.75
2022-08-20T22:00:56.632Z,98666.50
2022-08-20T22:03:43.571Z,98658.19
2022-08-20T22:06:31.246Z,98657.00
2022-08-20T22:09:18.793Z,98660.09
2022-08-20T22:12:10.151Z,98657.59
2022-08-20T22:14:57.205Z,98654.94
2022-08-20T22:17:44.087Z,98664.41
2022-08-20T22:20:31.138Z,98657.09
2022-08-20T22:23:20.485Z,98639.91
2022-08-20T22:26:08.483Z,98646.50
2022-08-20T22:28:55.776Z,98650.69
2022-08-20T22:31:43.350Z,98645.97
2022-08-20T22:34:33.578Z,98649.44
2022-08-20T22:37:20.741Z,98637.25
2022-08-20T22:40:08.318Z,98630.81
2022-08-20T22:42:55.446Z,98633.66
2022-08-20T22:45:46.309Z,98638.75
2022-08-20T22:48:33.290Z,98630.84
2022-08-20T22:51:29.015Z,98631.19
2022-08-20T22:54:22.478Z,98640.47
2022-08-20T22:57:09.468Z,98641.84
2022-08-20T22:59:57.727Z,98633.31
2022-08-20T23:02:50.565Z,98628.28
2022-08-20T23:05:38.220Z,98628.47
2022-08-20T23:08:25.292Z,98623.59
2022-08-20T23:11:14.135Z,98627.78
2022-08-20T23:14:01.058Z,98636.88
2022-08-20T23:16:56.074Z,98634.84
2022-08-20T23:19:46.009Z,98629.84
2022-08-20T23:22:32.992Z,98629.34
2022-08-20T23:25:20.085Z,98636.41
2022-08-20T23:28:07.287Z,98631.41
2022-08-20T23:30:54.317Z,98625.19
2022-08-20T23:33:44.678Z,98624.19
2022-08-20T23:36:32.105Z,98629.91
2022-08-20T23:39:19.569Z,98632.63
2022-08-20T23:42:06.520Z,98625.06
2022-08-20T23:44:53.421Z,98613.00
2022-08-20T23:47:40.794Z,98611.16
2022-08-20T23:50:30.289Z,98609.97
2022-08-20T23:53:17.173Z,98614.84
2022-08-20T23:56:05.001Z,98609.59
2022-08-20T23:58:51.990Z,98612.00
